Terminal Aerodrome Forecast
Issued by NWS

Home | Current Version | Previous Version | Text Only | Print | Product List | Glossary On
Versions: 1 2 3 4 5 6 7 8 9 10 11 12
000
FTUS45 KGGW 281725
TAFSDY
TAF
KSDY 281725Z 2818/2918 07010KT P6SM BKN200
     FM282300 10009KT P6SM BKN090
     FM290300 VRB04KT P6SM BKN090
      AMD LTD TO CLD VIS AND WIND=

USA.gov is the U.S. government's official web portal to all federal, state and local government web resources and services.